createdAt,value
2023-01-19T00:02:21.289Z,77.30
2023-01-19T00:04:47.915Z,77.04
2023-01-19T00:07:15.150Z,76.46
2023-01-19T00:09:41.729Z,75.05
2023-01-19T00:12:08.899Z,74.91
2023-01-19T00:14:35.572Z,75.22
2023-01-19T00:17:02.100Z,77.90
2023-01-19T00:19:29.001Z,78.19
2023-01-19T00:21:55.596Z,78.50
2023-01-19T00:24:22.125Z,78.40
2023-01-19T00:26:48.633Z,78.11
2023-01-19T00:29:15.429Z,77.58
2023-01-19T00:31:44.731Z,77.41
2023-01-19T00:34:11.428Z,77.53
2023-01-19T00:36:38.049Z,77.96
2023-01-19T00:39:05.024Z,78.00
2023-01-19T00:41:31.810Z,77.45
2023-01-19T00:43:58.348Z,77.37
2023-01-19T00:46:24.834Z,77.15
2023-01-19T00:48:51.297Z,77.17
2023-01-19T00:51:17.881Z,76.52
2023-01-19T00:53:44.500Z,76.60
2023-01-19T00:56:10.970Z,76.67
2023-01-19T00:58:38.569Z,76.32
2023-01-19T01:01:05.415Z,76.68
2023-01-19T01:03:35.377Z,76.36
2023-01-19T01:06:02.108Z,76.13
2023-01-19T01:08:28.907Z,75.49
2023-01-19T01:10:55.669Z,76.36
2023-01-19T01:13:23.631Z,75.01
2023-01-19T01:15:55.172Z,75.24
2023-01-19T01:18:22.102Z,75.75
2023-01-19T01:20:48.820Z,75.98
2023-01-19T01:23:18.643Z,75.73
2023-01-19T01:25:45.559Z,75.68
2023-01-19T01:28:12.160Z,75.78
2023-01-19T01:30:38.831Z,76.10
2023-01-19T01:33:06.105Z,76.05
2023-01-19T01:35:32.637Z,75.75
2023-01-19T01:38:00.057Z,75.84
2023-01-19T01:40:27.029Z,76.08
2023-01-19T01:42:53.529Z,76.14
2023-01-19T01:45:35.633Z,76.15
2023-01-19T01:48:11.600Z,76.33
2023-01-19T01:51:00.412Z,76.78
2023-01-19T01:53:27.726Z,76.25
2023-01-19T01:55:54.232Z,75.67
2023-01-19T01:58:21.380Z,75.13
2023-01-19T02:00:47.971Z,75.31
2023-01-19T02:03:15.133Z,75.48
2023-01-19T02:05:42.268Z,75.51
2023-01-19T02:08:13.203Z,76.23
2023-01-19T02:10:41.702Z,76.01
2023-01-19T02:13:08.300Z,76.06
2023-01-19T02:15:34.815Z,76.43
2023-01-19T02:18:01.316Z,77.43
2023-01-19T02:20:30.396Z,76.42
2023-01-19T02:23:03.556Z,76.29
2023-01-19T02:25:30.548Z,77.52
2023-01-19T02:28:00.356Z,76.59
2023-01-19T02:30:27.929Z,76.60
2023-01-19T02:32:54.479Z,76.69
2023-01-19T02:35:21.140Z,76.18
2023-01-19T02:37:48.144Z,75.61
2023-01-19T02:40:18.281Z,75.94
2023-01-19T02:42:52.306Z,75.04
2023-01-19T02:45:21.396Z,75.89
2023-01-19T02:47:50.794Z,75.48
2023-01-19T02:50:35.633Z,74.46
2023-01-19T02:53:13.105Z,73.75
2023-01-19T02:55:40.381Z,74.57
2023-01-19T02:58:16.032Z,74.04
2023-01-19T03:01:15.245Z,73.19
2023-01-19T03:03:53.767Z,73.09
2023-01-19T03:06:29.169Z,73.77
2023-01-19T03:09:14.557Z,74.31
2023-01-19T03:11:45.586Z,74.74
2023-01-19T03:14:15.039Z,74.71
2023-01-19T03:16:48.292Z,75.21
2023-01-19T03:19:21.908Z,74.90
2023-01-19T03:21:52.106Z,74.95
2023-01-19T03:24:19.493Z,74.97
2023-01-19T03:26:49.830Z,75.14
2023-01-19T03:29:17.824Z,74.91
2023-01-19T03:31:45.752Z,75.43
2023-01-19T03:34:13.804Z,74.71
2023-01-19T03:36:43.923Z,74.02
2023-01-19T03:39:11.448Z,74.25
2023-01-19T03:41:39.145Z,72.86
2023-01-19T03:44:05.997Z,72.70
2023-01-19T03:46:33.222Z,72.68
2023-01-19T03:49:01.400Z,72.23
2023-01-19T03:51:28.119Z,72.35
2023-01-19T03:53:54.590Z,72.15
2023-01-19T03:56:23.262Z,71.14
2023-01-19T03:58:50.393Z,72.07
2023-01-19T04:01:18.320Z,72.39
2023-01-19T04:03:45.110Z,73.53
2023-01-19T04:06:11.628Z,74.15
2023-01-19T04:08:38.182Z,74.99
2023-01-19T04:11:04.825Z,75.63
2023-01-19T04:13:31.689Z,74.76
2023-01-19T04:16:01.899Z,74.81
2023-01-19T04:18:29.438Z,74.33
2023-01-19T04:20:55.952Z,73.67
2023-01-19T04:23:22.620Z,73.45
2023-01-19T04:25:49.191Z,73.34
2023-01-19T04:28:15.908Z,73.47
2023-01-19T04:30:42.385Z,74.53
2023-01-19T04:33:08.855Z,73.66
2023-01-19T04:35:35.381Z,73.86
2023-01-19T04:38:02.334Z,73.72
2023-01-19T04:40:29.043Z,73.84
2023-01-19T04:42:55.720Z,73.58
2023-01-19T04:45:22.196Z,73.74
2023-01-19T04:47:50.254Z,74.38
2023-01-19T04:50:16.804Z,74.60
2023-01-19T04:52:45.517Z,74.98
2023-01-19T04:55:12.345Z,74.72
2023-01-19T04:57:38.928Z,74.77
2023-01-19T05:00:06.359Z,74.96
2023-01-19T05:02:32.893Z,74.69
2023-01-19T05:04:59.915Z,75.02
2023-01-19T05:07:26.679Z,75.80
2023-01-19T05:09:53.213Z,75.92
2023-01-19T05:12:20.241Z,75.73
2023-01-19T05:14:46.825Z,75.54
2023-01-19T05:17:13.814Z,74.75
2023-01-19T05:19:40.305Z,73.90
2023-01-19T05:22:06.851Z,73.99
2023-01-19T05:24:33.795Z,74.40
2023-01-19T05:27:00.287Z,75.43
2023-01-19T05:29:26.759Z,74.90
2023-01-19T05:31:53.272Z,75.00
2023-01-19T05:34:19.776Z,75.59
2023-01-19T05:36:46.228Z,75.95
2023-01-19T05:39:12.990Z,76.70
2023-01-19T05:41:39.574Z,77.12
2023-01-19T05:44:06.059Z,76.69
2023-01-19T05:46:34.040Z,76.64
2023-01-19T05:49:00.595Z,76.95
2023-01-19T05:51:27.382Z,76.52
2023-01-19T05:53:53.890Z,76.62
2023-01-19T05:56:20.335Z,76.30
2023-01-19T05:58:46.799Z,75.91
2023-01-19T06:01:13.379Z,75.54
2023-01-19T06:03:40.556Z,75.15
2023-01-19T06:06:07.526Z,75.73
2023-01-19T06:08:34.176Z,75.26
2023-01-19T06:11:00.816Z,75.49
2023-01-19T06:13:27.797Z,74.98
2023-01-19T06:15:59.136Z,74.74
2023-01-19T06:18:26.136Z,74.83
2023-01-19T06:20:53.364Z,74.61
2023-01-19T06:23:19.869Z,74.85
2023-01-19T06:25:46.428Z,75.67
2023-01-19T06:28:13.006Z,74.57
2023-01-19T06:30:39.602Z,74.05
2023-01-19T06:33:06.173Z,74.04
2023-01-19T06:35:32.644Z,74.21
2023-01-19T06:37:59.637Z,74.99
2023-01-19T06:40:26.194Z,74.95
2023-01-19T06:42:52.660Z,74.35
2023-01-19T06:45:19.128Z,74.84
2023-01-19T06:47:47.621Z,74.64
2023-01-19T06:50:14.244Z,74.87
2023-01-19T06:52:40.711Z,74.65
2023-01-19T06:55:07.564Z,74.22
2023-01-19T06:57:34.170Z,74.72
2023-01-19T07:00:00.725Z,74.30
2023-01-19T07:02:28.528Z,74.54
2023-01-19T07:04:56.246Z,74.61
2023-01-19T07:07:22.851Z,74.06
2023-01-19T07:09:49.630Z,75.22
2023-01-19T07:12:20.391Z,76.00
2023-01-19T07:14:46.849Z,76.54
2023-01-19T07:17:13.325Z,76.77
2023-01-19T07:19:40.096Z,76.24
2023-01-19T07:22:06.836Z,75.47
2023-01-19T07:24:33.692Z,75.29
2023-01-19T07:27:00.323Z,75.75
2023-01-19T07:29:27.114Z,75.78
2023-01-19T07:31:53.665Z,76.00
2023-01-19T07:34:20.949Z,75.76
2023-01-19T07:36:47.715Z,75.80
2023-01-19T07:39:15.743Z,76.24
2023-01-19T07:41:42.287Z,76.00
2023-01-19T07:44:08.749Z,74.94
2023-01-19T07:46:35.230Z,75.38
2023-01-19T07:49:01.838Z,74.51
2023-01-19T07:51:28.308Z,73.86
2023-01-19T07:53:54.777Z,73.87
2023-01-19T07:56:21.241Z,72.71
2023-01-19T07:58:47.758Z,73.36
2023-01-19T08:01:14.303Z,73.44
2023-01-19T08:03:41.263Z,73.53
2023-01-19T08:06:07.841Z,73.06
2023-01-19T08:08:34.485Z,73.25
2023-01-19T08:11:01.037Z,73.08
2023-01-19T08:13:27.541Z,73.10
2023-01-19T08:15:54.394Z,72.68
2023-01-19T08:18:21.460Z,73.19
2023-01-19T08:20:48.011Z,73.56
2023-01-19T08:23:14.671Z,72.85
2023-01-19T08:25:42.725Z,72.25
2023-01-19T08:28:09.355Z,72.12
2023-01-19T08:30:36.326Z,71.61
2023-01-19T08:33:03.114Z,71.15
2023-01-19T08:35:34.690Z,71.84
2023-01-19T08:38:01.211Z,72.88
2023-01-19T08:40:28.964Z,72.39
2023-01-19T08:43:02.834Z,71.78
2023-01-19T08:45:29.840Z,71.30
2023-01-19T08:47:57.263Z,70.20
2023-01-19T08:50:23.915Z,70.27
2023-01-19T08:52:50.406Z,70.50
2023-01-19T08:55:16.991Z,70.62
2023-01-19T08:57:43.540Z,69.90
2023-01-19T09:00:10.488Z,70.54
2023-01-19T09:02:37.351Z,70.49
2023-01-19T09:05:04.042Z,69.79
2023-01-19T09:07:32.525Z,69.54
2023-01-19T09:10:01.807Z,68.88
2023-01-19T09:12:28.280Z,68.08
2023-01-19T09:14:54.933Z,69.17
2023-01-19T09:17:21.812Z,68.05
2023-01-19T09:19:48.355Z,67.92
2023-01-19T09:22:15.580Z,67.56
2023-01-19T09:24:42.080Z,65.05
2023-01-19T09:27:08.556Z,65.75
2023-01-19T09:29:35.034Z,66.07
2023-01-19T09:32:01.508Z,65.54
2023-01-19T09:34:28.061Z,66.18
2023-01-19T09:36:54.733Z,65.82
2023-01-19T09:39:21.201Z,64.80
2023-01-19T09:41:51.854Z,64.64
2023-01-19T09:44:29.459Z,64.59
2023-01-19T09:46:55.992Z,63.89
2023-01-19T09:49:33.369Z,65.37
2023-01-19T09:51:59.994Z,65.16
2023-01-19T09:54:31.643Z,65.01
2023-01-19T09:56:58.137Z,66.18
2023-01-19T09:59:32.691Z,65.15
2023-01-19T10:02:27.133Z,65.02
2023-01-19T10:05:05.622Z,64.25
2023-01-19T10:07:35.472Z,63.89
2023-01-19T10:10:13.117Z,64.37
2023-01-19T10:12:58.722Z,65.01
2023-01-19T10:15:59.727Z,66.50
2023-01-19T10:18:28.037Z,65.97
2023-01-19T10:21:05.580Z,64.15
2023-01-19T10:23:44.084Z,64.50
2023-01-19T10:26:32.750Z,62.56
2023-01-19T10:29:05.964Z,63.13
2023-01-19T10:31:34.559Z,61.87
2023-01-19T10:34:01.084Z,61.26
2023-01-19T10:36:38.322Z,63.03
2023-01-19T10:39:05.515Z,61.97
2023-01-19T10:41:42.680Z,61.92
2023-01-19T10:44:10.055Z,62.02
2023-01-19T10:46:44.845Z,61.33
2023-01-19T10:49:30.396Z,61.94
2023-01-19T10:51:58.439Z,62.32
2023-01-19T10:54:27.030Z,61.62
2023-01-19T10:56:59.198Z,62.11
2023-01-19T10:59:39.815Z,60.67
2023-01-19T11:02:14.839Z,61.28
2023-01-19T11:04:41.545Z,62.11
2023-01-19T11:07:20.115Z,62.11
2023-01-19T11:09:47.715Z,60.12
2023-01-19T11:12:22.132Z,60.77
2023-01-19T11:14:50.454Z,61.73
2023-01-19T11:17:22.261Z,62.64
2023-01-19T11:19:58.378Z,61.81
2023-01-19T11:22:30.798Z,61.13
2023-01-19T11:25:01.908Z,60.92
2023-01-19T11:27:30.460Z,63.00
2023-01-19T11:30:15.401Z,62.92
2023-01-19T11:32:41.940Z,60.54
2023-01-19T11:35:30.584Z,60.19
2023-01-19T11:38:07.726Z,58.36
2023-01-19T11:40:35.487Z,59.50
2023-01-19T11:43:02.330Z,59.50
2023-01-19T11:45:29.161Z,59.38
2023-01-19T11:47:55.807Z,58.90
2023-01-19T11:50:31.848Z,60.21
2023-01-19T11:53:16.473Z,59.74
2023-01-19T11:55:57.094Z,58.91
2023-01-19T11:58:24.379Z,60.71
2023-01-19T12:01:02.429Z,60.38
2023-01-19T12:03:32.624Z,59.93
2023-01-19T12:06:04.649Z,59.37
2023-01-19T12:08:36.051Z,59.16
2023-01-19T12:11:03.540Z,58.50
2023-01-19T12:13:31.332Z,58.30
2023-01-19T12:16:05.489Z,56.09
2023-01-19T12:18:45.019Z,56.39
2023-01-19T12:21:13.757Z,55.94
2023-01-19T12:24:11.361Z,54.83
2023-01-19T12:26:56.428Z,55.04
2023-01-19T12:29:26.221Z,54.93
2023-01-19T12:32:13.193Z,55.56
2023-01-19T12:34:43.160Z,55.15
2023-01-19T12:37:28.091Z,56.91
2023-01-19T12:39:56.599Z,57.22
2023-01-19T12:42:23.262Z,58.33
2023-01-19T12:45:03.346Z,57.13
2023-01-19T12:47:29.937Z,56.43
2023-01-19T12:49:58.542Z,55.91
2023-01-19T12:52:39.520Z,57.52
2023-01-19T12:55:15.446Z,55.17
2023-01-19T12:58:02.365Z,56.91
2023-01-19T13:00:36.244Z,57.64
2023-01-19T13:03:02.660Z,56.67
2023-01-19T13:05:33.105Z,56.98
2023-01-19T13:08:02.838Z,53.99
2023-01-19T13:11:00.206Z,55.97
2023-01-19T13:13:28.734Z,56.04
2023-01-19T13:15:56.169Z,57.38
2023-01-19T13:18:33.216Z,58.40
2023-01-19T13:21:09.374Z,60.14
2023-01-19T13:23:47.650Z,57.95
2023-01-19T13:26:16.581Z,58.04
2023-01-19T13:28:45.195Z,57.64
2023-01-19T13:31:12.891Z,59.82
2023-01-19T13:33:51.732Z,58.54
2023-01-19T13:36:36.523Z,59.75
2023-01-19T13:39:11.290Z,59.72
2023-01-19T13:41:39.278Z,60.13
2023-01-19T13:44:18.053Z,58.12
2023-01-19T13:46:45.814Z,55.38
2023-01-19T13:49:18.384Z,54.06
2023-01-19T13:51:44.879Z,53.69
2023-01-19T13:54:17.907Z,55.13
2023-01-19T13:56:50.201Z,55.02
2023-01-19T13:59:19.734Z,55.77
2023-01-19T14:01:46.734Z,56.70
2023-01-19T14:04:33.720Z,57.65
2023-01-19T14:07:06.218Z,56.75
2023-01-19T14:09:32.760Z,58.49
2023-01-19T14:12:07.885Z,58.21
2023-01-19T14:14:36.498Z,57.56
2023-01-19T14:17:04.787Z,57.02
2023-01-19T14:19:48.176Z,56.83
2023-01-19T14:22:14.813Z,58.20
2023-01-19T14:24:41.397Z,57.51
2023-01-19T14:27:09.296Z,57.20
2023-01-19T14:29:37.094Z,57.31
2023-01-19T14:32:05.370Z,56.72
2023-01-19T14:34:59.110Z,57.48
2023-01-19T14:37:36.408Z,55.64
2023-01-19T14:40:09.104Z,54.40
2023-01-19T14:42:38.299Z,55.58
2023-01-19T14:45:08.470Z,55.70
2023-01-19T14:47:40.086Z,55.69
2023-01-19T14:50:19.224Z,54.87
2023-01-19T14:53:15.218Z,54.69
2023-01-19T14:55:49.978Z,54.58
2023-01-19T14:58:24.237Z,56.93
2023-01-19T15:00:51.230Z,57.86
2023-01-19T15:03:17.774Z,57.84
2023-01-19T15:05:46.341Z,58.12
2023-01-19T15:08:20.206Z,57.78
2023-01-19T15:10:46.796Z,58.72
2023-01-19T15:13:23.595Z,57.45
2023-01-19T15:15:50.257Z,56.57
2023-01-19T15:18:19.811Z,55.15
2023-01-19T15:20:46.603Z,51.96
2023-01-19T15:23:13.134Z,50.03
2023-01-19T15:25:39.650Z,50.33
2023-01-19T15:28:14.881Z,52.02
2023-01-19T15:30:41.605Z,52.49
2023-01-19T15:33:17.347Z,55.13
2023-01-19T15:35:43.908Z,56.70
2023-01-19T15:38:10.440Z,57.54
2023-01-19T15:40:37.162Z,57.41
2023-01-19T15:43:03.673Z,58.06
2023-01-19T15:45:58.067Z,58.96
2023-01-19T15:48:24.831Z,58.13
2023-01-19T15:50:51.493Z,58.56
2023-01-19T15:53:21.652Z,59.03
2023-01-19T15:55:52.560Z,59.99
2023-01-19T15:58:19.171Z,60.52
2023-01-19T16:00:45.816Z,60.71
2023-01-19T16:03:12.352Z,61.82
2023-01-19T16:05:42.826Z,61.47
2023-01-19T16:08:13.533Z,61.25
2023-01-19T16:10:43.567Z,62.91
2023-01-19T16:13:11.669Z,64.03
2023-01-19T16:15:39.123Z,63.83
2023-01-19T16:18:05.964Z,64.71
2023-01-19T16:20:32.522Z,64.75
2023-01-19T16:23:13.532Z,65.19
2023-01-19T16:25:40.829Z,64.54
2023-01-19T16:28:07.439Z,65.06
2023-01-19T16:30:34.459Z,65.34
2023-01-19T16:33:00.989Z,65.71
2023-01-19T16:35:27.735Z,66.52
2023-01-19T16:37:54.260Z,67.29
2023-01-19T16:40:20.830Z,66.83
2023-01-19T16:42:47.344Z,67.39
2023-01-19T16:45:16.181Z,67.13
2023-01-19T16:47:42.693Z,67.17
2023-01-19T16:50:11.403Z,66.69
2023-01-19T16:52:38.628Z,67.35
2023-01-19T16:55:06.165Z,67.95
2023-01-19T16:57:32.941Z,68.09
2023-01-19T16:59:59.457Z,68.70
2023-01-19T17:02:25.937Z,68.62
2023-01-19T17:04:52.432Z,68.48
2023-01-19T17:07:19.395Z,69.70
2023-01-19T17:09:45.952Z,70.55
2023-01-19T17:12:12.608Z,70.79
2023-01-19T17:14:39.118Z,71.08
2023-01-19T17:17:05.675Z,71.52
2023-01-19T17:19:32.256Z,72.88
2023-01-19T17:21:58.945Z,73.83
2023-01-19T17:24:25.493Z,74.04
2023-01-19T17:26:52.022Z,74.29
2023-01-19T17:29:18.611Z,75.27
2023-01-19T17:31:46.333Z,75.89
2023-01-19T17:34:12.878Z,76.39
2023-01-19T17:36:39.349Z,76.57
2023-01-19T17:39:08.388Z,76.74
2023-01-19T17:41:35.508Z,76.91
2023-01-19T17:44:04.241Z,77.15
2023-01-19T17:46:31.468Z,76.67
2023-01-19T17:49:03.034Z,75.83
2023-01-19T17:51:30.636Z,75.88
2023-01-19T17:53:58.222Z,76.50
2023-01-19T17:56:27.832Z,75.62
2023-01-19T17:58:54.790Z,75.82
2023-01-19T18:01:31.857Z,76.62
2023-01-19T18:03:58.775Z,76.70
2023-01-19T18:06:25.571Z,77.13
2023-01-19T18:08:52.152Z,75.96
2023-01-19T18:11:20.579Z,76.00
2023-01-19T18:13:48.996Z,76.03
2023-01-19T18:16:18.168Z,76.31
2023-01-19T18:18:46.047Z,76.96
2023-01-19T18:21:14.339Z,77.30
2023-01-19T18:23:43.788Z,77.55
2023-01-19T18:26:18.781Z,78.50
2023-01-19T18:28:45.566Z,77.12
2023-01-19T18:31:14.490Z,76.95
2023-01-19T18:33:41.490Z,76.58
2023-01-19T18:36:08.904Z,76.48
2023-01-19T18:38:35.535Z,75.80
2023-01-19T18:41:06.715Z,75.14
2023-01-19T18:43:33.819Z,75.04
2023-01-19T18:46:00.432Z,75.16
2023-01-19T18:48:26.958Z,74.01
2023-01-19T18:50:53.986Z,73.54
2023-01-19T18:53:20.918Z,72.13
2023-01-19T18:55:52.209Z,71.13
2023-01-19T18:58:21.989Z,70.42
2023-01-19T19:00:48.911Z,70.28
2023-01-19T19:03:15.899Z,69.07
2023-01-19T19:05:44.593Z,70.04
2023-01-19T19:08:11.693Z,70.60
2023-01-19T19:10:40.183Z,70.39
2023-01-19T19:13:06.761Z,70.78
2023-01-19T19:15:35.177Z,71.78
2023-01-19T19:18:01.799Z,71.19
2023-01-19T19:20:28.431Z,70.84
2023-01-19T19:22:55.694Z,72.10
2023-01-19T19:25:22.740Z,72.23
2023-01-19T19:27:52.815Z,72.05
2023-01-19T19:30:19.462Z,72.29
2023-01-19T19:32:54.713Z,73.00
2023-01-19T19:35:21.626Z,72.75
2023-01-19T19:37:48.969Z,73.52
2023-01-19T19:40:16.198Z,71.98
2023-01-19T19:42:45.037Z,71.32
2023-01-19T19:45:12.190Z,71.11
2023-01-19T19:47:38.818Z,71.64
2023-01-19T19:50:05.847Z,71.43
2023-01-19T19:52:32.338Z,70.94
2023-01-19T19:54:58.854Z,70.51
2023-01-19T19:57:25.463Z,71.10
2023-01-19T19:59:51.969Z,70.42
2023-01-19T20:02:18.481Z,70.43
2023-01-19T20:04:45.267Z,70.21
2023-01-19T20:07:11.826Z,68.99
2023-01-19T20:09:38.395Z,69.66
2023-01-19T20:12:05.296Z,68.53
2023-01-19T20:14:31.851Z,69.10
2023-01-19T20:16:58.616Z,68.59
2023-01-19T20:19:25.281Z,67.82
2023-01-19T20:21:51.840Z,67.55
2023-01-19T20:24:20.021Z,68.37
2023-01-19T20:26:50.108Z,67.38
2023-01-19T20:29:18.928Z,67.77
2023-01-19T20:31:50.021Z,65.96
2023-01-19T20:34:18.774Z,66.58
2023-01-19T20:36:45.447Z,66.57
2023-01-19T20:39:12.033Z,66.26
2023-01-19T20:41:39.613Z,66.96
2023-01-19T20:44:06.172Z,67.50
2023-01-19T20:46:32.714Z,67.89
2023-01-19T20:48:59.429Z,69.24
2023-01-19T20:51:26.123Z,69.04
2023-01-19T20:53:52.963Z,68.80
2023-01-19T20:56:19.812Z,68.69
2023-01-19T20:58:46.516Z,68.70
2023-01-19T21:01:20.504Z,67.44
2023-01-19T21:03:47.787Z,67.13
2023-01-19T21:06:14.865Z,66.89
2023-01-19T21:08:41.926Z,63.49
2023-01-19T21:11:09.009Z,64.73
2023-01-19T21:13:36.421Z,65.05
2023-01-19T21:16:03.831Z,65.20
2023-01-19T21:18:30.416Z,65.24
2023-01-19T21:20:57.369Z,66.90
2023-01-19T21:23:25.241Z,68.59
2023-01-19T21:25:57.285Z,68.39
2023-01-19T21:28:24.541Z,68.50
2023-01-19T21:30:52.934Z,69.28
2023-01-19T21:33:20.298Z,69.64
2023-01-19T21:35:54.456Z,69.76
2023-01-19T21:38:21.863Z,69.10
2023-01-19T21:40:48.892Z,69.47
2023-01-19T21:43:15.615Z,69.93
2023-01-19T21:45:43.169Z,70.24
2023-01-19T21:48:09.990Z,70.04
2023-01-19T21:50:37.153Z,69.67
2023-01-19T21:53:04.672Z,69.43
2023-01-19T21:55:31.999Z,68.60
2023-01-19T21:57:58.505Z,68.13
2023-01-19T22:00:27.125Z,66.96
2023-01-19T22:03:03.696Z,66.81
2023-01-19T22:05:36.374Z,66.54
2023-01-19T22:08:03.823Z,66.37
2023-01-19T22:10:30.441Z,66.99
2023-01-19T22:12:56.958Z,66.53
2023-01-19T22:15:23.440Z,66.36
2023-01-19T22:17:49.996Z,65.59
2023-01-19T22:20:16.768Z,65.64
2023-01-19T22:22:43.318Z,65.29
2023-01-19T22:25:09.968Z,67.10
2023-01-19T22:27:36.561Z,68.45
2023-01-19T22:30:03.469Z,69.58
2023-01-19T22:32:29.968Z,69.33
2023-01-19T22:34:56.479Z,68.91
2023-01-19T22:37:22.990Z,69.36
2023-01-19T22:39:49.464Z,68.66
2023-01-19T22:42:15.929Z,68.71
2023-01-19T22:44:42.462Z,68.57
2023-01-19T22:47:09.080Z,67.86
2023-01-19T22:49:35.671Z,67.68
2023-01-19T22:52:02.170Z,67.42
2023-01-19T22:54:28.630Z,67.45
2023-01-19T22:56:55.115Z,67.25
2023-01-19T22:59:21.616Z,67.56
2023-01-19T23:01:49.458Z,67.78
2023-01-19T23:04:16.185Z,67.76
2023-01-19T23:06:43.056Z,68.39
2023-01-19T23:09:14.219Z,68.98
2023-01-19T23:11:43.580Z,68.18
2023-01-19T23:14:14.211Z,68.50
2023-01-19T23:16:40.916Z,68.02
2023-01-19T23:19:07.482Z,68.17
2023-01-19T23:21:34.395Z,68.24
2023-01-19T23:24:02.820Z,67.94
2023-01-19T23:26:30.167Z,68.12
2023-01-19T23:29:01.041Z,67.97
2023-01-19T23:31:30.175Z,67.78
2023-01-19T23:34:01.605Z,68.05
2023-01-19T23:36:31.090Z,68.21
2023-01-19T23:39:00.576Z,68.30
2023-01-19T23:41:27.853Z,67.79
2023-01-19T23:43:54.754Z,68.02
2023-01-19T23:46:21.890Z,68.86
2023-01-19T23:48:48.863Z,68.72
2023-01-19T23:51:20.833Z,68.64
2023-01-19T23:53:47.921Z,68.85
2023-01-19T23:56:21.919Z,69.09
2023-01-19T23:58:53.315Z,68.76
